sensor_id;sensor_type;location;lat;lon;timestamp;P1;durP1;ratioP1;P2;durP2;ratioP2
68653;SDS011;55636;51.108;13.622;2023-11-21T00:00:31;2.00;;;1.30;;
68653;SDS011;55636;51.108;13.622;2023-11-21T00:01:34;1.50;;;1.20;;
68653;SDS011;55636;51.108;13.622;2023-11-21T00:02:37;1.80;;;1.20;;
68653;SDS011;55636;51.108;13.622;2023-11-21T00:03:42;1.57;;;1.20;;
68653;SDS011;55636;51.108;13.622;2023-11-21T00:04:44;1.67;;;1.30;;
68653;SDS011;55636;51.108;13.622;2023-11-21T00:05:47;1.77;;;1.20;;
68653;SDS011;55636;51.108;13.622;2023-11-21T00:06:53;1.47;;;1.20;;
68653;SDS011;55636;51.108;13.622;2023-11-21T00:07:56;1.50;;;1.23;;
68653;SDS011;55636;51.108;13.622;2023-11-21T00:08:59;2.13;;;1.33;;
68653;SDS011;55636;51.108;13.622;2023-11-21T00:10:01;2.33;;;1.10;;
68653;SDS011;55636;51.108;13.622;2023-11-21T00:11:05;1.57;;;1.20;;
68653;SDS011;55636;51.108;13.622;2023-11-21T00:12:08;1.30;;;1.07;;
68653;SDS011;55636;51.108;13.622;2023-11-21T00:13:12;1.43;;;1.20;;
68653;SDS011;55636;51.108;13.622;2023-11-21T00:14:15;1.57;;;1.17;;
68653;SDS011;55636;51.108;13.622;2023-11-21T00:15:17;1.33;;;1.23;;
68653;SDS011;55636;51.108;13.622;2023-11-21T00:16:20;1.20;;;1.10;;
68653;SDS011;55636;51.108;13.622;2023-11-21T00:17:25;2.03;;;1.30;;
68653;SDS011;55636;51.108;13.622;2023-11-21T00:18:28;1.23;;;1.03;;
68653;SDS011;55636;51.108;13.622;2023-11-21T00:19:30;1.20;;;1.10;;
68653;SDS011;55636;51.108;13.622;2023-11-21T00:20:33;1.23;;;1.13;;
68653;SDS011;55636;51.108;13.622;2023-11-21T00:21:35;1.30;;;1.17;;
68653;SDS011;55636;51.108;13.622;2023-11-21T00:22:38;1.67;;;1.20;;
68653;SDS011;55636;51.108;13.622;2023-11-21T00:23:40;1.80;;;1.20;;
68653;SDS011;55636;51.108;13.622;2023-11-21T00:24:43;1.43;;;1.10;;
68653;SDS011;55636;51.108;13.622;2023-11-21T00:25:45;1.27;;;1.10;;
68653;SDS011;55636;51.108;13.622;2023-11-21T00:26:48;1.30;;;1.20;;
68653;SDS011;55636;51.108;13.622;2023-11-21T00:27:51;2.00;;;1.27;;
68653;SDS011;55636;51.108;13.622;2023-11-21T00:28:53;1.27;;;1.10;;
68653;SDS011;55636;51.108;13.622;2023-11-21T00:29:55;2.40;;;1.47;;
68653;SDS011;55636;51.108;13.622;2023-11-21T00:30:58;1.20;;;1.10;;
68653;SDS011;55636;51.108;13.622;2023-11-21T00:32:00;1.63;;;1.07;;
68653;SDS011;55636;51.108;13.622;2023-11-21T00:33:03;1.37;;;1.17;;
68653;SDS011;55636;51.108;13.622;2023-11-21T00:34:06;1.97;;;1.23;;
68653;SDS011;55636;51.108;13.622;2023-11-21T00:35:09;1.93;;;1.30;;
68653;SDS011;55636;51.108;13.622;2023-11-21T00:36:12;2.23;;;1.23;;
68653;SDS011;55636;51.108;13.622;2023-11-21T00:37:14;2.17;;;1.20;;
68653;SDS011;55636;51.108;13.622;2023-11-21T00:38:17;1.83;;;1.30;;
68653;SDS011;55636;51.108;13.622;2023-11-21T00:39:22;1.23;;;1.10;;
68653;SDS011;55636;51.108;13.622;2023-11-21T00:40:24;2.80;;;1.20;;
68653;SDS011;55636;51.108;13.622;2023-11-21T00:41:27;2.27;;;1.20;;
68653;SDS011;55636;51.108;13.622;2023-11-21T00:42:29;1.47;;;1.10;;
68653;SDS011;55636;51.108;13.622;2023-11-21T00:43:32;1.30;;;1.20;;
68653;SDS011;55636;51.108;13.622;2023-11-21T00:44:37;1.37;;;1.10;;
68653;SDS011;55636;51.108;13.622;2023-11-21T00:45:40;1.67;;;1.00;;
68653;SDS011;55636;51.108;13.622;2023-11-21T00:46:43;3.57;;;1.30;;
68653;SDS011;55636;51.108;13.622;2023-11-21T00:47:45;1.87;;;1.30;;
68653;SDS011;55636;51.108;13.622;2023-11-21T00:48:48;1.30;;;1.20;;
68653;SDS011;55636;51.108;13.622;2023-11-21T00:49:51;1.87;;;1.20;;
68653;SDS011;55636;51.108;13.622;2023-11-21T00:50:53;1.30;;;1.10;;
68653;SDS011;55636;51.108;13.622;2023-11-21T00:51:58;1.20;;;1.10;;
68653;SDS011;55636;51.108;13.622;2023-11-21T00:53:01;1.33;;;1.10;;
68653;SDS011;55636;51.108;13.622;2023-11-21T00:54:04;1.50;;;1.20;;
68653;SDS011;55636;51.108;13.622;2023-11-21T00:55:08;1.30;;;1.20;;
68653;SDS011;55636;51.108;13.622;2023-11-21T00:56:12;2.27;;;1.20;;
68653;SDS011;55636;51.108;13.622;2023-11-21T00:57:15;1.70;;;1.20;;
68653;SDS011;55636;51.108;13.622;2023-11-21T00:58:18;1.30;;;1.20;;
68653;SDS011;55636;51.108;13.622;2023-11-21T00:59:21;2.60;;;1.40;;
68653;SDS011;55636;51.108;13.622;2023-11-21T01:00:25;1.70;;;1.20;;
68653;SDS011;55636;51.108;13.622;2023-11-21T01:01:27;1.40;;;1.20;;
68653;SDS011;55636;51.108;13.622;2023-11-21T01:02:30;1.50;;;1.20;;
68653;SDS011;55636;51.108;13.622;2023-11-21T01:03:33;1.47;;;1.37;;
68653;SDS011;55636;51.108;13.622;2023-11-21T01:04:35;1.57;;;1.47;;
68653;SDS011;55636;51.108;13.622;2023-11-21T01:05:38;1.47;;;1.27;;
68653;SDS011;55636;51.108;13.622;2023-11-21T01:06:40;2.87;;;1.40;;
68653;SDS011;55636;51.108;13.622;2023-11-21T01:07:43;2.13;;;1.30;;
68653;SDS011;55636;51.108;13.622;2023-11-21T01:08:46;1.30;;;1.20;;
68653;SDS011;55636;51.108;13.622;2023-11-21T01:09:48;1.50;;;1.30;;
68653;SDS011;55636;51.108;13.622;2023-11-21T01:10:51;1.37;;;1.20;;
68653;SDS011;55636;51.108;13.622;2023-11-21T01:11:53;2.00;;;1.37;;
68653;SDS011;55636;51.108;13.622;2023-11-21T01:12:56;1.40;;;1.30;;
68653;SDS011;55636;51.108;13.622;2023-11-21T01:13:59;1.40;;;1.20;;
68653;SDS011;55636;51.108;13.622;2023-11-21T01:15:03;2.87;;;1.50;;
68653;SDS011;55636;51.108;13.622;2023-11-21T01:16:07;2.80;;;1.40;;
68653;SDS011;55636;51.108;13.622;2023-11-21T01:17:11;1.50;;;1.20;;
68653;SDS011;55636;51.108;13.622;2023-11-21T01:18:14;1.47;;;1.20;;
68653;SDS011;55636;51.108;13.622;2023-11-21T01:19:16;2.03;;;1.43;;
68653;SDS011;55636;51.108;13.622;2023-11-21T01:20:19;1.73;;;1.40;;
68653;SDS011;55636;51.108;13.622;2023-11-21T01:21:21;1.60;;;1.30;;
68653;SDS011;55636;51.108;13.622;2023-11-21T01:22:25;1.83;;;1.47;;
68653;SDS011;55636;51.108;13.622;2023-11-21T01:23:28;2.77;;;1.43;;
68653;SDS011;55636;51.108;13.622;2023-11-21T01:24:30;1.77;;;1.33;;
68653;SDS011;55636;51.108;13.622;2023-11-21T01:25:33;3.67;;;1.50;;
68653;SDS011;55636;51.108;13.622;2023-11-21T01:26:36;2.17;;;1.40;;
68653;SDS011;55636;51.108;13.622;2023-11-21T01:27:38;1.63;;;1.47;;
68653;SDS011;55636;51.108;13.622;2023-11-21T01:28:40;1.83;;;1.40;;
68653;SDS011;55636;51.108;13.622;2023-11-21T01:29:43;1.63;;;1.40;;
68653;SDS011;55636;51.108;13.622;2023-11-21T01:30:45;2.80;;;1.40;;
68653;SDS011;55636;51.108;13.622;2023-11-21T01:31:48;1.43;;;1.33;;
68653;SDS011;55636;51.108;13.622;2023-11-21T01:32:50;1.30;;;1.20;;
68653;SDS011;55636;51.108;13.622;2023-11-21T01:33:53;2.23;;;1.47;;
68653;SDS011;55636;51.108;13.622;2023-11-21T01:34:55;2.13;;;1.30;;
68653;SDS011;55636;51.108;13.622;2023-11-21T01:35:57;1.40;;;1.30;;
68653;SDS011;55636;51.108;13.622;2023-11-21T01:37:00;1.53;;;1.23;;
68653;SDS011;55636;51.108;13.622;2023-11-21T01:38:03;1.77;;;1.40;;
68653;SDS011;55636;51.108;13.622;2023-11-21T01:39:06;2.00;;;1.37;;
68653;SDS011;55636;51.108;13.622;2023-11-21T01:40:10;1.47;;;1.10;;
68653;SDS011;55636;51.108;13.622;2023-11-21T01:41:16;2.47;;;1.20;;
68653;SDS011;55636;51.108;13.622;2023-11-21T01:42:19;2.47;;;1.30;;
68653;SDS011;55636;51.108;13.622;2023-11-21T01:43:21;2.50;;;1.53;;
68653;SDS011;55636;51.108;13.622;2023-11-21T01:44:24;1.70;;;1.27;;
68653;SDS011;55636;51.108;13.622;2023-11-21T01:45:27;2.70;;;1.20;;
68653;SDS011;55636;51.108;13.622;2023-11-21T01:46:31;2.50;;;1.47;;
68653;SDS011;55636;51.108;13.622;2023-11-21T01:47:33;2.53;;;1.40;;
68653;SDS011;55636;51.108;13.622;2023-11-21T01:48:38;1.93;;;1.37;;
68653;SDS011;55636;51.108;13.622;2023-11-21T01:49:42;2.23;;;1.37;;
68653;SDS011;55636;51.108;13.622;2023-11-21T01:50:46;2.23;;;1.40;;
68653;SDS011;55636;51.108;13.622;2023-11-21T01:51:49;1.50;;;1.30;;
68653;SDS011;55636;51.108;13.622;2023-11-21T01:52:52;2.17;;;1.30;;
68653;SDS011;55636;51.108;13.622;2023-11-21T01:53:57;1.57;;;1.30;;
68653;SDS011;55636;51.108;13.622;2023-11-21T01:55:01;2.57;;;1.37;;
68653;SDS011;55636;51.108;13.622;2023-11-21T01:56:05;1.70;;;1.30;;
68653;SDS011;55636;51.108;13.622;2023-11-21T01:57:11;1.53;;;1.13;;
68653;SDS011;55636;51.108;13.622;2023-11-21T01:58:13;2.17;;;1.30;;
68653;SDS011;55636;51.108;13.622;2023-11-21T01:59:18;3.03;;;1.20;;
68653;SDS011;55636;51.108;13.622;2023-11-21T02:00:25;1.80;;;1.30;;
68653;SDS011;55636;51.108;13.622;2023-11-21T02:01:31;1.83;;;1.30;;
68653;SDS011;55636;51.108;13.622;2023-11-21T02:02:34;1.53;;;1.40;;
68653;SDS011;55636;51.108;13.622;2023-11-21T02:03:36;3.33;;;1.30;;
68653;SDS011;55636;51.108;13.622;2023-11-21T02:04:39;1.97;;;1.40;;
68653;SDS011;55636;51.108;13.622;2023-11-21T02:05:41;1.50;;;1.30;;
68653;SDS011;55636;51.108;13.622;2023-11-21T02:06:44;1.57;;;1.30;;
68653;SDS011;55636;51.108;13.622;2023-11-21T02:07:46;1.40;;;1.30;;
68653;SDS011;55636;51.108;13.622;2023-11-21T02:08:54;2.20;;;1.40;;
68653;SDS011;55636;51.108;13.622;2023-11-21T02:09:57;2.10;;;1.23;;
68653;SDS011;55636;51.108;13.622;2023-11-21T02:10:59;2.17;;;1.40;;
68653;SDS011;55636;51.108;13.622;2023-11-21T02:12:02;2.03;;;1.17;;
68653;SDS011;55636;51.108;13.622;2023-11-21T02:13:04;2.70;;;1.50;;
68653;SDS011;55636;51.108;13.622;2023-11-21T02:14:08;1.93;;;1.27;;
68653;SDS011;55636;51.108;13.622;2023-11-21T02:15:14;1.50;;;1.30;;
68653;SDS011;55636;51.108;13.622;2023-11-21T02:16:17;1.70;;;1.27;;
68653;SDS011;55636;51.108;13.622;2023-11-21T02:17:19;2.27;;;1.40;;
68653;SDS011;55636;51.108;13.622;2023-11-21T02:18:22;2.10;;;1.20;;
68653;SDS011;55636;51.108;13.622;2023-11-21T02:19:25;1.57;;;1.30;;
68653;SDS011;55636;51.108;13.622;2023-11-21T02:20:28;1.77;;;1.30;;
68653;SDS011;55636;51.108;13.622;2023-11-21T02:21:32;2.13;;;1.40;;
68653;SDS011;55636;51.108;13.622;2023-11-21T02:22:34;2.03;;;1.40;;
68653;SDS011;55636;51.108;13.622;2023-11-21T02:23:42;1.90;;;1.33;;
68653;SDS011;55636;51.108;13.622;2023-11-21T02:24:47;2.23;;;1.53;;
68653;SDS011;55636;51.108;13.622;2023-11-21T02:25:49;1.77;;;1.30;;
68653;SDS011;55636;51.108;13.622;2023-11-21T02:26:52;2.23;;;1.40;;
68653;SDS011;55636;51.108;13.622;2023-11-21T02:28:01;3.27;;;1.53;;
68653;SDS011;55636;51.108;13.622;2023-11-21T02:29:05;2.17;;;1.30;;
68653;SDS011;55636;51.108;13.622;2023-11-21T02:30:07;2.73;;;1.27;;
68653;SDS011;55636;51.108;13.622;2023-11-21T02:31:14;1.40;;;1.20;;
68653;SDS011;55636;51.108;13.622;2023-11-21T02:32:17;2.17;;;1.20;;
68653;SDS011;55636;51.108;13.622;2023-11-21T02:33:21;2.13;;;1.27;;
68653;SDS011;55636;51.108;13.622;2023-11-21T02:34:24;2.30;;;1.50;;
68653;SDS011;55636;51.108;13.622;2023-11-21T02:35:29;1.37;;;1.27;;
68653;SDS011;55636;51.108;13.622;2023-11-21T02:36:34;2.07;;;1.37;;
68653;SDS011;55636;51.108;13.622;2023-11-21T02:37:36;1.60;;;1.40;;
68653;SDS011;55636;51.108;13.622;2023-11-21T02:38:39;2.60;;;1.50;;
68653;SDS011;55636;51.108;13.622;2023-11-21T02:39:42;2.33;;;1.40;;
68653;SDS011;55636;51.108;13.622;2023-11-21T02:40:44;1.73;;;1.30;;
68653;SDS011;55636;51.108;13.622;2023-11-21T02:41:47;2.23;;;1.47;;
68653;SDS011;55636;51.108;13.622;2023-11-21T02:42:49;2.47;;;1.33;;
68653;SDS011;55636;51.108;13.622;2023-11-21T02:43:55;2.53;;;1.60;;
68653;SDS011;55636;51.108;13.622;2023-11-21T02:44:58;1.67;;;1.40;;
68653;SDS011;55636;51.108;13.622;2023-11-21T02:46:00;2.07;;;1.50;;
68653;SDS011;55636;51.108;13.622;2023-11-21T02:47:02;2.73;;;1.40;;
68653;SDS011;55636;51.108;13.622;2023-11-21T02:48:06;1.73;;;1.40;;
68653;SDS011;55636;51.108;13.622;2023-11-21T02:49:08;3.20;;;1.20;;
68653;SDS011;55636;51.108;13.622;2023-11-21T02:50:14;4.10;;;1.70;;
68653;SDS011;55636;51.108;13.622;2023-11-21T02:51:16;1.73;;;1.40;;
68653;SDS011;55636;51.108;13.622;2023-11-21T02:52:19;1.57;;;1.27;;
68653;SDS011;55636;51.108;13.622;2023-11-21T02:53:21;2.50;;;1.50;;
68653;SDS011;55636;51.108;13.622;2023-11-21T02:54:26;1.83;;;1.30;;
68653;SDS011;55636;51.108;13.622;2023-11-21T02:55:29;2.53;;;1.40;;
68653;SDS011;55636;51.108;13.622;2023-11-21T02:56:33;2.30;;;1.40;;
68653;SDS011;55636;51.108;13.622;2023-11-21T02:57:35;2.10;;;1.57;;
68653;SDS011;55636;51.108;13.622;2023-11-21T02:58:40;3.30;;;1.40;;
68653;SDS011;55636;51.108;13.622;2023-11-21T02:59:43;2.23;;;1.57;;
68653;SDS011;55636;51.108;13.622;2023-11-21T03:00:47;3.00;;;1.50;;
68653;SDS011;55636;51.108;13.622;2023-11-21T03:01:49;2.60;;;1.50;;
68653;SDS011;55636;51.108;13.622;2023-11-21T03:02:51;2.53;;;1.73;;
68653;SDS011;55636;51.108;13.622;2023-11-21T03:03:55;2.20;;;1.30;;
68653;SDS011;55636;51.108;13.622;2023-11-21T03:04:58;2.87;;;1.40;;
68653;SDS011;55636;51.108;13.622;2023-11-21T03:06:01;3.33;;;1.63;;
68653;SDS011;55636;51.108;13.622;2023-11-21T03:07:03;2.43;;;1.40;;
68653;SDS011;55636;51.108;13.622;2023-11-21T03:08:07;2.70;;;1.50;;
68653;SDS011;55636;51.108;13.622;2023-11-21T03:09:09;2.40;;;1.60;;
68653;SDS011;55636;51.108;13.622;2023-11-21T03:10:14;2.90;;;1.40;;
68653;SDS011;55636;51.108;13.622;2023-11-21T03:11:17;2.30;;;1.50;;
68653;SDS011;55636;51.108;13.622;2023-11-21T03:12:20;3.57;;;1.53;;
68653;SDS011;55636;51.108;13.622;2023-11-21T03:13:22;1.97;;;1.40;;
68653;SDS011;55636;51.108;13.622;2023-11-21T03:14:25;1.43;;;1.30;;
68653;SDS011;55636;51.108;13.622;2023-11-21T03:15:28;1.80;;;1.43;;
68653;SDS011;55636;51.108;13.622;2023-11-21T03:16:31;2.60;;;1.47;;
68653;SDS011;55636;51.108;13.622;2023-11-21T03:17:36;4.00;;;1.60;;
68653;SDS011;55636;51.108;13.622;2023-11-21T03:18:39;3.00;;;1.43;;
68653;SDS011;55636;51.108;13.622;2023-11-21T03:19:42;1.60;;;1.43;;
68653;SDS011;55636;51.108;13.622;2023-11-21T03:20:44;1.67;;;1.40;;
68653;SDS011;55636;51.108;13.622;2023-11-21T03:21:49;2.47;;;1.50;;
68653;SDS011;55636;51.108;13.622;2023-11-21T03:22:52;2.97;;;1.40;;
68653;SDS011;55636;51.108;13.622;2023-11-21T03:23:55;2.40;;;1.30;;
68653;SDS011;55636;51.108;13.622;2023-11-21T03:24:57;1.80;;;1.30;;
68653;SDS011;55636;51.108;13.622;2023-11-21T03:26:01;2.33;;;1.57;;
68653;SDS011;55636;51.108;13.622;2023-11-21T03:27:05;1.23;;;1.13;;
68653;SDS011;55636;51.108;13.622;2023-11-21T03:28:07;3.17;;;1.50;;
68653;SDS011;55636;51.108;13.622;2023-11-21T03:29:10;3.13;;;1.33;;
68653;SDS011;55636;51.108;13.622;2023-11-21T03:30:13;3.30;;;1.57;;
68653;SDS011;55636;51.108;13.622;2023-11-21T03:31:16;2.57;;;1.60;;
68653;SDS011;55636;51.108;13.622;2023-11-21T03:32:20;1.30;;;1.10;;
68653;SDS011;55636;51.108;13.622;2023-11-21T03:33:23;2.30;;;1.63;;
68653;SDS011;55636;51.108;13.622;2023-11-21T03:34:26;3.03;;;1.40;;
68653;SDS011;55636;51.108;13.622;2023-11-21T03:35:29;2.20;;;1.60;;
68653;SDS011;55636;51.108;13.622;2023-11-21T03:36:32;3.40;;;1.73;;
68653;SDS011;55636;51.108;13.622;2023-11-21T03:37:34;2.50;;;1.53;;
68653;SDS011;55636;51.108;13.622;2023-11-21T03:38:37;2.57;;;1.43;;
68653;SDS011;55636;51.108;13.622;2023-11-21T03:39:39;2.50;;;1.53;;
68653;SDS011;55636;51.108;13.622;2023-11-21T03:40:42;1.93;;;1.47;;
68653;SDS011;55636;51.108;13.622;2023-11-21T03:41:44;1.77;;;1.40;;
68653;SDS011;55636;51.108;13.622;2023-11-21T03:42:47;3.17;;;1.50;;
68653;SDS011;55636;51.108;13.622;2023-11-21T03:43:49;3.27;;;1.77;;
68653;SDS011;55636;51.108;13.622;2023-11-21T03:44:52;1.53;;;1.30;;
68653;SDS011;55636;51.108;13.622;2023-11-21T03:45:55;3.53;;;1.50;;
68653;SDS011;55636;51.108;13.622;2023-11-21T03:46:57;2.67;;;1.40;;
68653;SDS011;55636;51.108;13.622;2023-11-21T03:48:00;2.30;;;1.40;;
68653;SDS011;55636;51.108;13.622;2023-11-21T03:49:04;1.93;;;1.30;;
68653;SDS011;55636;51.108;13.622;2023-11-21T03:50:06;2.80;;;1.63;;
68653;SDS011;55636;51.108;13.622;2023-11-21T03:51:11;2.30;;;1.47;;
68653;SDS011;55636;51.108;13.622;2023-11-21T03:52:13;1.57;;;1.33;;
68653;SDS011;55636;51.108;13.622;2023-11-21T03:53:15;1.57;;;1.40;;
68653;SDS011;55636;51.108;13.622;2023-11-21T03:54:18;4.53;;;1.70;;
68653;SDS011;55636;51.108;13.622;2023-11-21T03:55:21;1.83;;;1.40;;
68653;SDS011;55636;51.108;13.622;2023-11-21T03:56:25;2.37;;;1.60;;
68653;SDS011;55636;51.108;13.622;2023-11-21T03:57:28;3.47;;;1.50;;
68653;SDS011;55636;51.108;13.622;2023-11-21T03:58:30;2.27;;;1.50;;
68653;SDS011;55636;51.108;13.622;2023-11-21T03:59:32;2.23;;;1.67;;
68653;SDS011;55636;51.108;13.622;2023-11-21T04:00:35;2.07;;;1.60;;
68653;SDS011;55636;51.108;13.622;2023-11-21T04:01:37;1.60;;;1.30;;
68653;SDS011;55636;51.108;13.622;2023-11-21T04:02:40;2.93;;;1.60;;
68653;SDS011;55636;51.108;13.622;2023-11-21T04:03:42;2.40;;;1.57;;
68653;SDS011;55636;51.108;13.622;2023-11-21T04:04:45;3.67;;;1.60;;
68653;SDS011;55636;51.108;13.622;2023-11-21T04:05:48;2.20;;;1.50;;
68653;SDS011;55636;51.108;13.622;2023-11-21T04:06:51;1.90;;;1.40;;
68653;SDS011;55636;51.108;13.622;2023-11-21T04:07:54;2.93;;;1.50;;
68653;SDS011;55636;51.108;13.622;2023-11-21T04:08:56;3.23;;;1.80;;
68653;SDS011;55636;51.108;13.622;2023-11-21T04:09:59;3.07;;;1.63;;
68653;SDS011;55636;51.108;13.622;2023-11-21T04:11:01;2.13;;;1.60;;
68653;SDS011;55636;51.108;13.622;2023-11-21T04:12:04;3.17;;;1.80;;
68653;SDS011;55636;51.108;13.622;2023-11-21T04:13:07;3.10;;;1.70;;
68653;SDS011;55636;51.108;13.622;2023-11-21T04:14:09;2.17;;;1.33;;
68653;SDS011;55636;51.108;13.622;2023-11-21T04:15:12;2.77;;;1.70;;
68653;SDS011;55636;51.108;13.622;2023-11-21T04:16:15;3.17;;;1.73;;
68653;SDS011;55636;51.108;13.622;2023-11-21T04:17:18;2.70;;;1.80;;
68653;SDS011;55636;51.108;13.622;2023-11-21T04:18:21;2.33;;;1.53;;
68653;SDS011;55636;51.108;13.622;2023-11-21T04:19:24;2.57;;;1.60;;
68653;SDS011;55636;51.108;13.622;2023-11-21T04:20:26;4.27;;;1.83;;
68653;SDS011;55636;51.108;13.622;2023-11-21T04:21:29;6.27;;;2.17;;
68653;SDS011;55636;51.108;13.622;2023-11-21T04:22:31;3.07;;;1.90;;
68653;SDS011;55636;51.108;13.622;2023-11-21T04:23:34;3.07;;;1.90;;
68653;SDS011;55636;51.108;13.622;2023-11-21T04:24:37;1.80;;;1.57;;
68653;SDS011;55636;51.108;13.622;2023-11-21T04:25:40;5.50;;;1.80;;
68653;SDS011;55636;51.108;13.622;2023-11-21T04:26:45;3.33;;;1.93;;
68653;SDS011;55636;51.108;13.622;2023-11-21T04:27:48;3.83;;;1.70;;
68653;SDS011;55636;51.108;13.622;2023-11-21T04:28:51;2.77;;;1.97;;
68653;SDS011;55636;51.108;13.622;2023-11-21T04:29:54;3.83;;;1.70;;
68653;SDS011;55636;51.108;13.622;2023-11-21T04:30:56;2.50;;;1.70;;
68653;SDS011;55636;51.108;13.622;2023-11-21T04:31:58;3.17;;;1.90;;
68653;SDS011;55636;51.108;13.622;2023-11-21T04:33:01;2.43;;;1.60;;
68653;SDS011;55636;51.108;13.622;2023-11-21T04:34:05;2.97;;;1.70;;
68653;SDS011;55636;51.108;13.622;2023-11-21T04:35:08;2.70;;;1.80;;
68653;SDS011;55636;51.108;13.622;2023-11-21T04:36:11;3.77;;;1.80;;
68653;SDS011;55636;51.108;13.622;2023-11-21T04:37:13;2.60;;;1.83;;
68653;SDS011;55636;51.108;13.622;2023-11-21T04:38:15;3.30;;;1.90;;
68653;SDS011;55636;51.108;13.622;2023-11-21T04:39:18;1.57;;;1.43;;
68653;SDS011;55636;51.108;13.622;2023-11-21T04:40:22;2.60;;;1.90;;
68653;SDS011;55636;51.108;13.622;2023-11-21T04:41:24;2.93;;;1.80;;
68653;SDS011;55636;51.108;13.622;2023-11-21T04:42:28;3.53;;;1.80;;
68653;SDS011;55636;51.108;13.622;2023-11-21T04:43:31;4.70;;;2.13;;
68653;SDS011;55636;51.108;13.622;2023-11-21T04:44:33;2.87;;;1.93;;
68653;SDS011;55636;51.108;13.622;2023-11-21T04:45:36;4.53;;;1.80;;
68653;SDS011;55636;51.108;13.622;2023-11-21T04:46:38;3.80;;;2.17;;
68653;SDS011;55636;51.108;13.622;2023-11-21T04:47:40;3.47;;;1.90;;
68653;SDS011;55636;51.108;13.622;2023-11-21T04:48:43;3.03;;;1.87;;
68653;SDS011;55636;51.108;13.622;2023-11-21T04:49:46;2.33;;;1.90;;
68653;SDS011;55636;51.108;13.622;2023-11-21T04:50:49;3.70;;;2.03;;
68653;SDS011;55636;51.108;13.622;2023-11-21T04:51:52;2.50;;;2.10;;
68653;SDS011;55636;51.108;13.622;2023-11-21T04:52:55;3.87;;;2.13;;
68653;SDS011;55636;51.108;13.622;2023-11-21T04:53:57;2.97;;;2.17;;
68653;SDS011;55636;51.108;13.622;2023-11-21T04:55:00;3.20;;;2.23;;
68653;SDS011;55636;51.108;13.622;2023-11-21T04:56:04;2.47;;;1.90;;
68653;SDS011;55636;51.108;13.622;2023-11-21T04:57:07;2.77;;;2.10;;
68653;SDS011;55636;51.108;13.622;2023-11-21T04:58:09;3.50;;;2.00;;
68653;SDS011;55636;51.108;13.622;2023-11-21T04:59:14;3.07;;;1.93;;
68653;SDS011;55636;51.108;13.622;2023-11-21T05:00:17;3.67;;;2.10;;
68653;SDS011;55636;51.108;13.622;2023-11-21T05:01:19;3.07;;;1.93;;
68653;SDS011;55636;51.108;13.622;2023-11-21T05:02:22;3.10;;;1.93;;
68653;SDS011;55636;51.108;13.622;2023-11-21T05:03:36;3.50;;;1.97;;
68653;SDS011;55636;51.108;13.622;2023-11-21T05:04:41;3.27;;;2.20;;
68653;SDS011;55636;51.108;13.622;2023-11-21T05:05:44;4.30;;;2.33;;
68653;SDS011;55636;51.108;13.622;2023-11-21T05:06:47;2.90;;;2.30;;
68653;SDS011;55636;51.108;13.622;2023-11-21T05:07:49;3.10;;;2.00;;
68653;SDS011;55636;51.108;13.622;2023-11-21T05:08:52;4.47;;;2.20;;
68653;SDS011;55636;51.108;13.622;2023-11-21T05:09:55;3.83;;;2.00;;
68653;SDS011;55636;51.108;13.622;2023-11-21T05:10:57;3.03;;;2.07;;
68653;SDS011;55636;51.108;13.622;2023-11-21T05:12:00;3.47;;;2.33;;
68653;SDS011;55636;51.108;13.622;2023-11-21T05:13:02;3.70;;;2.23;;
68653;SDS011;55636;51.108;13.622;2023-11-21T05:14:05;4.07;;;2.10;;
68653;SDS011;55636;51.108;13.622;2023-11-21T05:15:08;4.53;;;2.20;;
68653;SDS011;55636;51.108;13.622;2023-11-21T05:16:14;4.43;;;2.13;;
68653;SDS011;55636;51.108;13.622;2023-11-21T05:17:17;2.90;;;2.10;;
68653;SDS011;55636;51.108;13.622;2023-11-21T05:18:19;2.73;;;2.10;;
68653;SDS011;55636;51.108;13.622;2023-11-21T05:19:22;4.10;;;2.23;;
68653;SDS011;55636;51.108;13.622;2023-11-21T05:20:25;4.03;;;2.50;;
68653;SDS011;55636;51.108;13.622;2023-11-21T05:21:27;4.00;;;2.60;;
68653;SDS011;55636;51.108;13.622;2023-11-21T05:22:32;2.53;;;2.27;;
68653;SDS011;55636;51.108;13.622;2023-11-21T05:23:34;3.83;;;2.50;;
68653;SDS011;55636;51.108;13.622;2023-11-21T05:24:37;3.07;;;2.00;;
68653;SDS011;55636;51.108;13.622;2023-11-21T05:25:41;2.60;;;2.20;;
68653;SDS011;55636;51.108;13.622;2023-11-21T05:26:43;4.33;;;2.20;;
68653;SDS011;55636;51.108;13.622;2023-11-21T05:27:46;6.03;;;2.47;;
68653;SDS011;55636;51.108;13.622;2023-11-21T05:28:49;3.80;;;2.43;;
68653;SDS011;55636;51.108;13.622;2023-11-21T05:29:52;2.77;;;2.10;;
68653;SDS011;55636;51.108;13.622;2023-11-21T05:30:54;4.63;;;2.40;;
68653;SDS011;55636;51.108;13.622;2023-11-21T05:32:15;4.50;;;2.43;;
68653;SDS011;55636;51.108;13.622;2023-11-21T05:33:18;3.60;;;2.07;;
68653;SDS011;55636;51.108;13.622;2023-11-21T05:34:20;4.60;;;2.50;;
68653;SDS011;55636;51.108;13.622;2023-11-21T05:35:26;3.40;;;2.23;;
68653;SDS011;55636;51.108;13.622;2023-11-21T05:36:28;5.33;;;2.30;;
68653;SDS011;55636;51.108;13.622;2023-11-21T05:37:31;4.03;;;2.43;;
68653;SDS011;55636;51.108;13.622;2023-11-21T05:38:33;2.83;;;2.10;;
68653;SDS011;55636;51.108;13.622;2023-11-21T05:39:37;3.57;;;2.40;;
68653;SDS011;55636;51.108;13.622;2023-11-21T05:40:39;3.70;;;2.33;;
68653;SDS011;55636;51.108;13.622;2023-11-21T05:41:42;3.07;;;2.27;;
68653;SDS011;55636;51.108;13.622;2023-11-21T05:42:47;4.57;;;2.40;;
68653;SDS011;55636;51.108;13.622;2023-11-21T05:43:50;4.13;;;2.63;;
68653;SDS011;55636;51.108;13.622;2023-11-21T05:44:52;3.73;;;2.80;;
68653;SDS011;55636;51.108;13.622;2023-11-21T05:45:54;4.93;;;2.50;;
68653;SDS011;55636;51.108;13.622;2023-11-21T05:46:57;5.23;;;2.73;;
68653;SDS011;55636;51.108;13.622;2023-11-21T05:48:01;3.47;;;2.60;;
68653;SDS011;55636;51.108;13.622;2023-11-21T05:49:04;4.57;;;2.63;;
68653;SDS011;55636;51.108;13.622;2023-11-21T05:50:07;3.67;;;2.50;;
68653;SDS011;55636;51.108;13.622;2023-11-21T05:51:12;5.03;;;2.30;;
68653;SDS011;55636;51.108;13.622;2023-11-21T05:52:15;3.10;;;2.30;;
68653;SDS011;55636;51.108;13.622;2023-11-21T05:53:18;3.87;;;2.50;;
68653;SDS011;55636;51.108;13.622;2023-11-21T05:54:21;4.27;;;2.80;;
68653;SDS011;55636;51.108;13.622;2023-11-21T05:55:23;4.97;;;2.70;;
68653;SDS011;55636;51.108;13.622;2023-11-21T05:56:28;3.10;;;2.40;;
68653;SDS011;55636;51.108;13.622;2023-11-21T05:57:30;4.10;;;2.63;;
68653;SDS011;55636;51.108;13.622;2023-11-21T05:58:33;4.80;;;2.50;;
68653;SDS011;55636;51.108;13.622;2023-11-21T05:59:35;3.77;;;2.50;;
68653;SDS011;55636;51.108;13.622;2023-11-21T06:00:38;3.87;;;2.50;;
68653;SDS011;55636;51.108;13.622;2023-11-21T06:01:40;3.17;;;2.47;;
68653;SDS011;55636;51.108;13.622;2023-11-21T06:02:42;3.63;;;2.40;;
68653;SDS011;55636;51.108;13.622;2023-11-21T06:03:45;5.37;;;2.33;;
68653;SDS011;55636;51.108;13.622;2023-11-21T06:04:48;3.37;;;2.37;;
68653;SDS011;55636;51.108;13.622;2023-11-21T06:05:50;5.23;;;2.70;;
68653;SDS011;55636;51.108;13.622;2023-11-21T06:06:53;3.10;;;2.70;;
68653;SDS011;55636;51.108;13.622;2023-11-21T06:07:56;5.47;;;2.80;;
68653;SDS011;55636;51.108;13.622;2023-11-21T06:09:03;4.30;;;2.70;;
68653;SDS011;55636;51.108;13.622;2023-11-21T06:10:06;3.83;;;2.90;;
68653;SDS011;55636;51.108;13.622;2023-11-21T06:11:14;3.83;;;2.90;;
68653;SDS011;55636;51.108;13.622;2023-11-21T06:12:18;3.23;;;2.50;;
68653;SDS011;55636;51.108;13.622;2023-11-21T06:13:22;4.33;;;2.50;;
68653;SDS011;55636;51.108;13.622;2023-11-21T06:14:26;6.23;;;2.60;;